Time;durP1;ratioP1;P1;durP2;ratioP2;P2;SDS_P1;SDS_P2;PMS_P1;PMS_P2;Temp;Humidity;BMP_temperature;BMP_pressure;BME280_temperature;BME280_humidity;BME280_pressure;Samples;Min_cycle;Max_cycle;Signal;HPM_P1;HPM_P2
2022/11/14 00:01:06;;;;;;;;;;;;;;;;;;5055477;28;19920;-82
2022/11/14 00:03:32;;;;;;;;;;;;;;;;;;5055005;28;19912;-79
2022/11/14 00:05:58;;;;;;;;;;;;;;;;;;5053745;28;19909;-81
2022/11/14 00:08:24;;;;;;;;;;;;;;;;;;5054394;28;19948;-80
2022/11/14 00:10:50;;;;;;;;;;;;;;;;;;5053072;28;20357;-79
2022/11/14 00:13:16;;;;;;;;;;;;;;;;;;5055104;28;19916;-80
2022/11/14 00:15:42;;;;;;;;;;;;;;;;;;5054107;28;20313;-79
2022/11/14 00:18:07;;;;;;;;;;;;;;;;;;5054137;28;19909;-80
2022/11/14 00:20:33;;;;;;;;;;;;;;;;;;5057117;28;19939;-80
2022/11/14 00:22:59;;;;;;;;;;;;;;;;;;5054218;28;20007;-80
2022/11/14 00:25:25;;;;;;;;;;;;;;;;;;5053249;28;19932;-81
2022/11/14 00:27:51;;;;;;;;;;;;;;;;;;5057759;28;19912;-80
2022/11/14 00:30:17;;;;;;;;;;;;;;;;;;5055148;28;19909;-79
2022/11/14 00:32:43;;;;;;;;;;;;;;;;;;5053554;28;19909;-79
2022/11/14 00:35:09;;;;;;;;;;;;;;;;;;5054785;28;20000;-82
2022/11/14 00:37:35;;;;;;;;;;;;;;;;;;5053631;28;20590;-81
2022/11/14 00:40:00;;;;;;;;;;;;;;;;;;5053308;28;20366;-79
2022/11/14 00:42:26;;;;;;;;;;;;;;;;;;5052911;28;19951;-80
2022/11/14 00:44:52;;;;;;;;;;;;;;;;;;5053158;28;19917;-80
2022/11/14 00:47:18;;;;;;;;;;;;;;;;;;5053690;28;20327;-80
2022/11/14 00:49:44;;;;;;;;;;;;;;;;;;5054945;28;19947;-81
2022/11/14 00:52:10;;;;;;;;;;;;;;;;;;5053167;28;19909;-80
2022/11/14 00:54:36;;;;;;;;;;;;;;;;;;5054193;28;19909;-82
2022/11/14 00:57:02;;;;;;;;;;;;;;;;;;5056618;28;19909;-81
2022/11/14 00:59:28;;;;;;;;;;;;;;;;;;5053740;28;19916;-81
2022/11/14 01:01:53;;;;;;;;;;;;;;;;;;5056793;28;19990;-83
2022/11/14 01:04:19;;;;;;;;;;;;;;;;;;5060354;28;19962;-83
2022/11/14 01:06:45;;;;;;;;;;;;;;;;;;5058830;28;19915;-83
2022/11/14 01:09:11;;;;;;;;;;;;;;;;;;5061886;28;19909;-82
2022/11/14 01:11:37;;;;;;;;;;;;;;;;;;5061882;28;19915;-81
2022/11/14 01:14:03;;;;;;;;;;;;;;;;;;5060878;28;19932;-82
2022/11/14 01:16:29;;;;;;;;;;;;;;;;;;5062993;28;19916;-83
2022/11/14 01:18:55;;;;;;;;;;;;;;;;;;5068483;28;19919;-81
2022/11/14 01:21:20;;;;;;;;;;;;;;;;;;5067154;28;19913;-81
2022/11/14 01:23:46;;;;;;;;;;;;;;;;;;5063058;28;20289;-78
2022/11/14 01:26:12;;;;;;;;;;;;;;;;;;5058226;28;19952;-80
2022/11/14 01:28:38;;;;;;;;;;;;;;;;;;5058222;28;20072;-80
2022/11/14 01:31:04;;;;;;;;;;;;;;;;;;5058181;28;19909;-80
2022/11/14 01:33:30;;;;;;;;;;;;;;;;;;5058940;28;19909;-80
2022/11/14 01:35:56;;;;;;;;;;;;;;;;;;5057767;28;19909;-80
2022/11/14 01:38:22;;;;;;;;;;;;;;;;;;5058191;28;19940;-80
2022/11/14 01:40:47;;;;;;;;;;;;;;;;;;5057908;28;19913;-80
2022/11/14 01:43:13;;;;;;;;;;;;;;;;;;5059569;28;19920;-80
2022/11/14 01:45:39;;;;;;;;;;;;;;;;;;5058203;28;19958;-81
2022/11/14 01:48:05;;;;;;;;;;;;;;;;;;5057617;28;19913;-79
2022/11/14 01:50:31;;;;;;;;;;;;;;;;;;5059219;28;19952;-80
2022/11/14 01:52:57;;;;;;;;;;;;;;;;;;5058199;28;19909;-80
2022/11/14 01:55:23;;;;;;;;;;;;;;;;;;5058156;28;19909;-80
2022/11/14 01:57:49;;;;;;;;;;;;;;;;;;5057575;28;19909;-81
2022/11/14 02:00:14;;;;;;;;;;;;;;;;;;5057620;28;19920;-80
2022/11/14 02:02:40;;;;;;;;;;;;;;;;;;5057563;28;19935;-80
2022/11/14 02:05:06;;;;;;;;;;;;;;;;;;5058709;28;19909;-80
2022/11/14 02:07:32;;;;;;;;;;;;;;;;;;5059444;28;19995;-80
2022/11/14 02:09:58;;;;;;;;;;;;;;;;;;5057694;28;19908;-80
2022/11/14 02:12:24;;;;;;;;;;;;;;;;;;5057864;28;19909;-81
2022/11/14 02:14:50;;;;;;;;;;;;;;;;;;5059250;28;19915;-80
2022/11/14 02:17:16;;;;;;;;;;;;;;;;;;5058551;28;19931;-79
2022/11/14 02:19:41;;;;;;;;;;;;;;;;;;5057835;28;19909;-82
2022/11/14 02:22:07;;;;;;;;;;;;;;;;;;5056754;28;19912;-81
2022/11/14 02:24:33;;;;;;;;;;;;;;;;;;5057163;28;19959;-80
2022/11/14 02:26:59;;;;;;;;;;;;;;;;;;5057344;28;19917;-80
2022/11/14 02:29:25;;;;;;;;;;;;;;;;;;5057174;28;19917;-80
2022/11/14 02:31:51;;;;;;;;;;;;;;;;;;5057389;28;19908;-80
2022/11/14 02:34:19;;;;;;;;;;;;;;;;;;5057372;28;20368;-81
2022/11/14 02:36:44;;;;;;;;;;;;;;;;;;5056928;28;19919;-80
2022/11/14 02:39:10;;;;;;;;;;;;;;;;;;5057124;28;20369;-81
2022/11/14 02:41:36;;;;;;;;;;;;;;;;;;5056986;28;19913;-80
2022/11/14 02:44:02;;;;;;;;;;;;;;;;;;5056856;28;19917;-80
2022/11/14 02:46:28;;;;;;;;;;;;;;;;;;5058309;28;20059;-80
2022/11/14 02:48:54;;;;;;;;;;;;;;;;;;5058563;28;19931;-80
2022/11/14 02:51:20;;;;;;;;;;;;;;;;;;5057062;28;19909;-80
2022/11/14 02:53:46;;;;;;;;;;;;;;;;;;5057619;28;19909;-80
2022/11/14 02:56:11;;;;;;;;;;;;;;;;;;5057096;28;19909;-82
2022/11/14 02:58:37;;;;;;;;;;;;;;;;;;5056968;28;19909;-80
2022/11/14 03:01:03;;;;;;;;;;;;;;;;;;5059004;28;20019;-80
2022/11/14 03:03:29;;;;;;;;;;;;;;;;;;5058968;28;19909;-80
2022/11/14 03:05:55;;;;;;;;;;;;;;;;;;5058725;28;20532;-80
2022/11/14 03:08:21;;;;;;;;;;;;;;;;;;5058287;28;19916;-81
2022/11/14 03:10:47;;;;;;;;;;;;;;;;;;5059745;28;20483;-81
2022/11/14 03:13:13;;;;;;;;;;;;;;;;;;5057992;28;19967;-79
2022/11/14 03:15:38;;;;;;;;;;;;;;;;;;5059226;28;20369;-80
2022/11/14 03:18:04;;;;;;;;;;;;;;;;;;5057615;28;19913;-79
2022/11/14 03:20:30;;;;;;;;;;;;;;;;;;5058792;28;20366;-81
2022/11/14 03:22:56;;;;;;;;;;;;;;;;;;5058659;28;19916;-79
2022/11/14 03:25:22;;;;;;;;;;;;;;;;;;5056693;28;20281;-79
2022/11/14 03:27:48;;;;;;;;;;;;;;;;;;5057744;28;20015;-79
2022/11/14 03:30:14;;;;;;;;;;;;;;;;;;5057625;28;20018;-80
2022/11/14 03:32:40;;;;;;;;;;;;;;;;;;5056965;28;20360;-80
2022/11/14 03:35:06;;;;;;;;;;;;;;;;;;5056988;28;19915;-80
2022/11/14 03:37:32;;;;;;;;;;;;;;;;;;5058874;28;19951;-80
2022/11/14 03:39:57;;;;;;;;;;;;;;;;;;5058256;28;19916;-80
2022/11/14 03:42:23;;;;;;;;;;;;;;;;;;5057287;28;20372;-81
2022/11/14 03:44:49;;;;;;;;;;;;;;;;;;5056607;28;19956;-80
2022/11/14 03:47:15;;;;;;;;;;;;;;;;;;5057687;28;19912;-80
2022/11/14 03:49:43;;;;;;;;;;;;;;;;;;5057636;28;19916;-80
2022/11/14 03:52:09;;;;;;;;;;;;;;;;;;5056908;28;20345;-80
2022/11/14 03:54:35;;;;;;;;;;;;;;;;;;5056935;28;19919;-80
2022/11/14 03:57:01;;;;;;;;;;;;;;;;;;5054543;28;19991;-80
2022/11/14 03:59:27;;;;;;;;;;;;;;;;;;5054689;28;20377;-79
2022/11/14 04:01:53;;;;;;;;;;;;;;;;;;5053358;28;19913;-80
2022/11/14 04:04:19;;;;;;;;;;;;;;;;;;5055726;28;20380;-81
2022/11/14 04:06:44;;;;;;;;;;;;;;;;;;5054814;28;19920;-80
2022/11/14 04:09:10;;;;;;;;;;;;;;;;;;5055674;28;19916;-80
2022/11/14 04:11:36;;;;;;;;;;;;;;;;;;5056946;28;19971;-82
2022/11/14 04:14:02;;;;;;;;;;;;;;;;;;5056093;28;19956;-80
2022/11/14 04:16:28;;;;;;;;;;;;;;;;;;5055052;28;19956;-79
2022/11/14 04:18:54;;;;;;;;;;;;;;;;;;5054894;28;19908;-79
2022/11/14 04:21:20;;;;;;;;;;;;;;;;;;5055200;28;19912;-81
2022/11/14 04:23:46;;;;;;;;;;;;;;;;;;5057342;28;19913;-80
2022/11/14 04:26:12;;;;;;;;;;;;;;;;;;5055729;28;19909;-80
2022/11/14 04:28:37;;;;;;;;;;;;;;;;;;5055991;28;19909;-80
2022/11/14 04:31:03;;;;;;;;;;;;;;;;;;5054362;28;19909;-79
2022/11/14 04:33:29;;;;;;;;;;;;;;;;;;5054730;28;20027;-79
2022/11/14 04:35:55;;;;;;;;;;;;;;;;;;5056529;28;19913;-78
2022/11/14 04:38:21;;;;;;;;;;;;;;;;;;5053716;28;19909;-79
2022/11/14 04:40:47;;;;;;;;;;;;;;;;;;5053547;28;19920;-81
2022/11/14 04:43:13;;;;;;;;;;;;;;;;;;5053335;28;19912;-80
2022/11/14 04:45:39;;;;;;;;;;;;;;;;;;5053733;28;19913;-79
2022/11/14 04:48:04;;;;;;;;;;;;;;;;;;5056195;28;19912;-79
2022/11/14 04:50:30;;;;;;;;;;;;;;;;;;5056826;28;19916;-81
2022/11/14 04:52:56;;;;;;;;;;;;;;;;;;5055105;28;20392;-80
2022/11/14 04:55:22;;;;;;;;;;;;;;;;;;5054888;28;19916;-80
2022/11/14 04:57:48;;;;;;;;;;;;;;;;;;5055010;28;19931;-79
2022/11/14 05:00:14;;;;;;;;;;;;;;;;;;5054880;28;20420;-79
2022/11/14 05:02:40;;;;;;;;;;;;;;;;;;5052752;28;19913;-79
2022/11/14 05:05:06;;;;;;;;;;;;;;;;;;5054213;28;20377;-79
2022/11/14 05:07:32;;;;;;;;;;;;;;;;;;5053879;28;19961;-79
2022/11/14 05:09:58;;;;;;;;;;;;;;;;;;5052442;28;20281;-79
2022/11/14 05:12:24;;;;;;;;;;;;;;;;;;5052513;28;19900;-79
2022/11/14 05:14:50;;;;;;;;;;;;;;;;;;5053598;28;19916;-78
2022/11/14 05:17:16;;;;;;;;;;;;;;;;;;5051899;28;19905;-79
2022/11/14 05:19:42;;;;;;;;;;;;;;;;;;5053518;28;19947;-78
2022/11/14 05:22:08;;;;;;;;;;;;;;;;;;5053140;28;19913;-78
2022/11/14 05:24:33;;;;;;;;;;;;;;;;;;5054122;28;19909;-80
2022/11/14 05:26:59;;;;;;;;;;;;;;;;;;5056228;28;19909;-79
2022/11/14 05:29:25;;;;;;;;;;;;;;;;;;5055594;28;19917;-80
2022/11/14 05:31:51;;;;;;;;;;;;;;;;;;5055145;28;19908;-80
2022/11/14 05:34:17;;;;;;;;;;;;;;;;;;5054974;28;19932;-79
2022/11/14 05:36:43;;;;;;;;;;;;;;;;;;5053510;28;19916;-80
2022/11/14 05:39:09;;;;;;;;;;;;;;;;;;5054861;28;19959;-79
2022/11/14 05:41:35;;;;;;;;;;;;;;;;;;5055377;28;19917;-81
2022/11/14 05:44:00;;;;;;;;;;;;;;;;;;5054207;28;19917;-80
2022/11/14 05:46:26;;;;;;;;;;;;;;;;;;5056284;28;19934;-77
2022/11/14 05:48:52;;;;;;;;;;;;;;;;;;5056141;28;19909;-80
2022/11/14 05:51:18;;;;;;;;;;;;;;;;;;5056151;28;19913;-82
2022/11/14 05:53:44;;;;;;;;;;;;;;;;;;5055145;28;19999;-80
2022/11/14 05:56:10;;;;;;;;;;;;;;;;;;5057661;28;19959;-80
2022/11/14 05:58:36;;;;;;;;;;;;;;;;;;5053305;28;19936;-81
2022/11/14 06:01:02;;;;;;;;;;;;;;;;;;5047371;28;20377;-80
2022/11/14 06:03:28;;;;;;;;;;;;;;;;;;5057144;28;19912;-81
2022/11/14 06:05:54;;;;;;;;;;;;;;;;;;5060933;28;19919;-80
2022/11/14 06:08:20;;;;;;;;;;;;;;;;;;5060527;28;19909;-79
2022/11/14 06:10:46;;;;;;;;;;;;;;;;;;5062369;28;19913;-82
2022/11/14 06:13:11;;;;;;;;;;;;;;;;;;5061325;28;19958;-82
2022/11/14 06:15:37;;;;;;;;;;;;;;;;;;5060794;28;19915;-80
2022/11/14 06:18:03;;;;;;;;;;;;;;;;;;5062256;28;19915;-80
2022/11/14 06:20:29;;;;;;;;;;;;;;;;;;5062786;28;20455;-81
2022/11/14 06:22:55;;;;;;;;;;;;;;;;;;5059700;28;19960;-79
2022/11/14 06:25:21;;;;;;;;;;;;;;;;;;5061451;28;19908;-78
2022/11/14 06:27:47;;;;;;;;;;;;;;;;;;5059282;28;19920;-81
2022/11/14 06:30:13;;;;;;;;;;;;;;;;;;5058547;28;19913;-82
2022/11/14 06:32:39;;;;;;;;;;;;;;;;;;5054826;28;19913;-80
2022/11/14 06:35:07;;;;;;;;;;;;;;;;;;5047476;28;20377;-82
2022/11/14 06:37:33;;;;;;;;;;;;;;;;;;5056955;28;19913;-83
2022/11/14 06:39:58;;;;;;;;;;;;;;;;;;5055082;28;19912;-83
2022/11/14 06:42:24;;;;;;;;;;;;;;;;;;5056810;28;20013;-81
2022/11/14 06:44:50;;;;;;;;;;;;;;;;;;5054356;28;20004;-80
2022/11/14 06:47:16;;;;;;;;;;;;;;;;;;5054824;28;19919;-82
2022/11/14 06:49:42;;;;;;;;;;;;;;;;;;5054717;28;19916;-79
2022/11/14 06:52:08;;;;;;;;;;;;;;;;;;5055545;28;19915;-80
2022/11/14 06:54:34;;;;;;;;;;;;;;;;;;5055515;28;19970;-78
2022/11/14 06:57:00;;;;;;;;;;;;;;;;;;5054389;28;19915;-79
2022/11/14 06:59:25;;;;;;;;;;;;;;;;;;5056905;28;19952;-78
2022/11/14 07:01:51;;;;;;;;;;;;;;;;;;5055404;28;19917;-81
2022/11/14 07:04:17;;;;;;;;;;;;;;;;;;5057457;28;19909;-78
2022/11/14 07:06:43;;;;;;;;;;;;;;;;;;5057114;28;19909;-80
2022/11/14 07:09:09;;;;;;;;;;;;;;;;;;5058719;28;19908;-77
2022/11/14 07:11:36;;;;;;;;;;;;;;;;;;5056919;28;20404;-79
2022/11/14 07:14:02;;;;;;;;;;;;;;;;;;5057091;28;19912;-79
2022/11/14 07:16:28;;;;;;;;;;;;;;;;;;5055269;28;19948;-77
2022/11/14 07:18:54;;;;;;;;;;;;;;;;;;5056104;28;19908;-79
2022/11/14 07:21:20;;;;;;;;;;;;;;;;;;5055011;28;19920;-78
2022/11/14 07:23:46;;;;;;;;;;;;;;;;;;5055028;28;19916;-77
2022/11/14 07:26:12;;;;;;;;;;;;;;;;;;5055668;28;19999;-77
2022/11/14 07:28:37;;;;;;;;;;;;;;;;;;5054420;28;19905;-78
2022/11/14 07:31:03;;;;;;;;;;;;;;;;;;5053977;28;20296;-78
2022/11/14 07:33:29;;;;;;;;;;;;;;;;;;5056551;28;20349;-79
2022/11/14 07:35:55;;;;;;;;;;;;;;;;;;5057815;28;19913;-79
2022/11/14 07:38:21;;;;;;;;;;;;;;;;;;5058653;28;20388;-81
2022/11/14 07:40:47;;;;;;;;;;;;;;;;;;5058435;28;19911;-80
2022/11/14 07:43:13;;;;;;;;;;;;;;;;;;5057894;28;20276;-80
2022/11/14 07:45:39;;;;;;;;;;;;;;;;;;5056849;28;19916;-79
2022/11/14 07:48:05;;;;;;;;;;;;;;;;;;5058446;28;20258;-80
2022/11/14 07:50:31;;;;;;;;;;;;;;;;;;5057697;28;19916;-80
2022/11/14 07:52:57;;;;;;;;;;;;;;;;;;5055925;28;20117;-79
2022/11/14 07:55:22;;;;;;;;;;;;;;;;;;5055492;28;19918;-79
2022/11/14 07:57:48;;;;;;;;;;;;;;;;;;5057540;28;20285;-82
2022/11/14 08:00:15;;;;;;;;;;;;;;;;;;5055077;28;19909;-79
2022/11/14 08:02:41;;;;;;;;;;;;;;;;;;5054698;28;19913;-81
2022/11/14 08:05:07;;;;;;;;;;;;;;;;;;5054611;28;19909;-79
2022/11/14 08:07:33;;;;;;;;;;;;;;;;;;5057505;28;19931;-82
2022/11/14 08:09:59;;;;;;;;;;;;;;;;;;5056003;28;19916;-78
2022/11/14 08:12:25;;;;;;;;;;;;;;;;;;5056465;28;19962;-79
2022/11/14 08:14:51;;;;;;;;;;;;;;;;;;5055799;28;19909;-79
2022/11/14 08:17:17;;;;;;;;;;;;;;;;;;5056692;28;19905;-80
2022/11/14 08:19:42;;;;;;;;;;;;;;;;;;5054969;28;19909;-81
2022/11/14 08:22:08;;;;;;;;;;;;;;;;;;5056222;28;19975;-79
2022/11/14 08:24:34;;;;;;;;;;;;;;;;;;5053897;28;19909;-79
2022/11/14 08:27:00;;;;;;;;;;;;;;;;;;5055371;28;19934;-82
2022/11/14 08:29:26;;;;;;;;;;;;;;;;;;5053571;28;19931;-79
2022/11/14 08:31:52;;;;;;;;;;;;;;;;;;5054912;28;19932;-78
2022/11/14 08:34:18;;;;;;;;;;;;;;;;;;5053425;28;19917;-81
2022/11/14 08:36:44;;;;;;;;;;;;;;;;;;5055402;28;20012;-78
2022/11/14 08:39:10;;;;;;;;;;;;;;;;;;5053672;28;19975;-79
2022/11/14 08:41:35;;;;;;;;;;;;;;;;;;5053487;28;19924;-79
2022/11/14 08:44:01;;;;;;;;;;;;;;;;;;5053527;28;19917;-79
2022/11/14 08:46:27;;;;;;;;;;;;;;;;;;5054055;28;19909;-83
2022/11/14 08:48:53;;;;;;;;;;;;;;;;;;5054496;28;19916;-79
2022/11/14 08:51:19;;;;;;;;;;;;;;;;;;5053325;28;20049;-78
2022/11/14 08:53:45;;;;;;;;;;;;;;;;;;5053270;28;19913;-80
2022/11/14 08:56:11;;;;;;;;;;;;;;;;;;5054231;28;19909;-79
2022/11/14 08:58:37;;;;;;;;;;;;;;;;;;5052982;28;19959;-81
2022/11/14 09:01:02;;;;;;;;;;;;;;;;;;5052903;28;19920;-79
2022/11/14 09:03:28;;;;;;;;;;;;;;;;;;5053969;28;19912;-79
2022/11/14 09:05:54;;;;;;;;;;;;;;;;;;5054403;28;20415;-79
2022/11/14 09:08:20;;;;;;;;;;;;;;;;;;5052244;28;19908;-80
2022/11/14 09:10:46;;;;;;;;;;;;;;;;;;5052899;28;19909;-81
2022/11/14 09:13:12;;;;;;;;;;;;;;;;;;5053199;28;19909;-80
2022/11/14 09:15:38;;;;;;;;;;;;;;;;;;5052906;28;19909;-78
2022/11/14 09:18:04;;;;;;;;;;;;;;;;;;5054058;28;20266;-80
2022/11/14 09:20:30;;;;;;;;;;;;;;;;;;5054242;28;19909;-80
2022/11/14 09:22:56;;;;;;;;;;;;;;;;;;5051625;28;19917;-79
2022/11/14 09:25:22;;;;;;;;;;;;;;;;;;5052768;28;19913;-79
2022/11/14 09:27:47;;;;;;;;;;;;;;;;;;5051146;28;20007;-78
2022/11/14 09:30:14;;;;;;;;;;;;;;;;;;5053282;28;19992;-78
2022/11/14 09:32:40;;;;;;;;;;;;;;;;;;5051556;28;19952;-79
2022/11/14 09:35:06;;;;;;;;;;;;;;;;;;5053481;28;19913;-77
2022/11/14 09:37:31;;;;;;;;;;;;;;;;;;5052487;28;19915;-77
2022/11/14 09:39:57;;;;;;;;;;;;;;;;;;5056897;28;19955;-78
2022/11/14 09:42:23;;;;;;;;;;;;;;;;;;5056695;28;19913;-79
2022/11/14 09:44:49;;;;;;;;;;;;;;;;;;5054903;28;19917;-78
2022/11/14 09:47:16;;;;;;;;;;;;;;;;;;5056267;28;19912;-80
2022/11/14 09:49:41;;;;;;;;;;;;;;;;;;5057036;28;19948;-79
2022/11/14 09:52:07;;;;;;;;;;;;;;;;;;5055420;28;19912;-79
2022/11/14 09:54:33;;;;;;;;;;;;;;;;;;5054643;28;20376;-79
2022/11/14 09:56:59;;;;;;;;;;;;;;;;;;5055094;28;19909;-79
2022/11/14 09:59:25;;;;;;;;;;;;;;;;;;5054830;28;20391;-80
2022/11/14 10:01:51;;;;;;;;;;;;;;;;;;5055702;28;19963;-79
2022/11/14 10:04:17;;;;;;;;;;;;;;;;;;5056751;28;19931;-79
2022/11/14 10:06:43;;;;;;;;;;;;;;;;;;5055382;28;19909;-79
2022/11/14 10:09:09;;;;;;;;;;;;;;;;;;5054752;28;19995;-78
2022/11/14 10:11:35;;;;;;;;;;;;;;;;;;5055028;28;20350;-79
2022/11/14 10:14:01;;;;;;;;;;;;;;;;;;5055578;28;19908;-79
2022/11/14 10:16:27;;;;;;;;;;;;;;;;;;5054244;28;20404;-79
2022/11/14 10:18:53;;;;;;;;;;;;;;;;;;5055701;28;19916;-80
2022/11/14 10:21:19;;;;;;;;;;;;;;;;;;5055256;28;19919;-79
2022/11/14 10:23:45;;;;;;;;;;;;;;;;;;5055874;28;20321;-77
2022/11/14 10:26:11;;;;;;;;;;;;;;;;;;5055522;28;19909;-78
2022/11/14 10:28:37;;;;;;;;;;;;;;;;;;5057126;28;19909;-79
2022/11/14 10:31:03;;;;;;;;;;;;;;;;;;5057532;28;20285;-80
2022/11/14 10:33:28;;;;;;;;;;;;;;;;;;5054128;28;19967;-77
2022/11/14 10:35:54;;;;;;;;;;;;;;;;;;5054473;28;19996;-78
2022/11/14 10:38:20;;;;;;;;;;;;;;;;;;5054502;28;19909;-79
2022/11/14 10:40:46;;;;;;;;;;;;;;;;;;5054230;28;19909;-79
2022/11/14 10:43:14;;;;;;;;;;;;;;;;;;5079530;22;19923;-78
2022/11/14 10:45:40;;;;;;;;;;;;;;;;;;5057493;28;19921;-79
2022/11/14 10:48:06;;;;;;;;;;;;;;;;;;5055420;28;20011;-78
2022/11/14 10:50:32;;;;;;;;;;;;;;;;;;5059662;28;19916;-78
2022/11/14 10:52:58;;;;;;;;;;;;;;;;;;5059874;28;19920;-78
2022/11/14 10:55:24;;;;;;;;;;;;;;;;;;5056503;28;19931;-79
2022/11/14 10:57:49;;;;;;;;;;;;;;;;;;5055003;28;19916;-77
2022/11/14 11:00:15;;;;;;;;;;;;;;;;;;5054065;28;19909;-79
2022/11/14 11:02:41;;;;;;;;;;;;;;;;;;5057632;28;19939;-79
2022/11/14 11:05:07;;;;;;;;;;;;;;;;;;5055604;28;20035;-79
2022/11/14 11:13:02;;;;;;;;;;;;;;;;;;5054831;28;19916;-78
2022/11/14 11:15:31;;;;;;;;;;;;;;;;;;5054550;28;19909;-78
2022/11/14 11:17:57;;;;;;;;;;;;;;;;;;5054340;28;19916;-77
2022/11/14 11:20:23;;;;;;;;;;;;;;;;;;5054215;28;19909;-78
2022/11/14 11:22:49;;;;;;;;;;;;;;;;;;5054590;28;19970;-78
2022/11/14 11:25:15;;;;;;;;;;;;;;;;;;5053725;28;20375;-78
2022/11/14 11:27:41;;;;;;;;;;;;;;;;;;5054290;28;19986;-78
2022/11/14 11:30:07;;;;;;;;;;;;;;;;;;5054087;28;20578;-78
2022/11/14 11:32:33;;;;;;;;;;;;;;;;;;5054194;28;19909;-78
2022/11/14 11:34:58;;;;;;;;;;;;;;;;;;5053786;28;19909;-78
2022/11/14 11:37:24;;;;;;;;;;;;;;;;;;5053789;28;19909;-79
2022/11/14 11:39:50;;;;;;;;;;;;;;;;;;5052697;28;19913;-77
2022/11/14 11:42:16;;;;;;;;;;;;;;;;;;5054253;28;19920;-77
2022/11/14 11:44:42;;;;;;;;;;;;;;;;;;5053436;28;20392;-75
2022/11/14 11:47:08;;;;;;;;;;;;;;;;;;5055798;28;19913;-78
2022/11/14 11:49:34;;;;;;;;;;;;;;;;;;5057056;28;20385;-79
2022/11/14 11:52:00;;;;;;;;;;;;;;;;;;5056424;28;19916;-77
2022/11/14 11:54:26;;;;;;;;;;;;;;;;;;5058180;28;19909;-79
2022/11/14 11:56:52;;;;;;;;;;;;;;;;;;5057334;28;20385;-78
2022/11/14 11:59:18;;;;;;;;;;;;;;;;;;5053355;28;19919;-78
2022/11/14 12:01:44;;;;;;;;;;;;;;;;;;5051440;28;20341;-79
2022/11/14 12:04:09;;;;;;;;;;;;;;;;;;5053607;28;19908;-79
2022/11/14 12:06:35;;;;;;;;;;;;;;;;;;5051993;28;19919;-77
2022/11/14 12:09:01;;;;;;;;;;;;;;;;;;5052441;28;20018;-78
2022/11/14 12:11:27;;;;;;;;;;;;;;;;;;5053913;28;19916;-78
2022/11/14 12:13:53;;;;;;;;;;;;;;;;;;5053090;28;20354;-79
2022/11/14 12:16:19;;;;;;;;;;;;;;;;;;5054229;28;19999;-78
2022/11/14 12:18:45;;;;;;;;;;;;;;;;;;5053879;28;20365;-79
2022/11/14 12:21:14;;;;;;;;;;;;;;;;;;5056882;28;20011;-79
2022/11/14 12:23:40;;;;;;;;;;;;;;;;;;5059343;28;19909;-80
2022/11/14 12:26:06;;;;;;;;;;;;;;;;;;5056386;28;20012;-78
2022/11/14 12:28:31;;;;;;;;;;;;;;;;;;5054564;28;19931;-78
2022/11/14 12:30:57;;;;;;;;;;;;;;;;;;5059527;28;19913;-80
2022/11/14 12:33:23;;;;;;;;;;;;;;;;;;5057191;28;19939;-84
2022/11/14 12:35:50;;;;;;;;;;;;;;;;;;5055346;28;20266;-79
2022/11/14 12:38:18;;;;;;;;;;;;;;;;;;5054904;28;20320;-79
2022/11/14 12:40:44;;;;;;;;;;;;;;;;;;5052765;28;19916;-78
2022/11/14 12:43:10;;;;;;;;;;;;;;;;;;5052722;28;19909;-78
2022/11/14 12:45:36;;;;;;;;;;;;;;;;;;5051580;28;19919;-77
2022/11/14 12:48:01;;;;;;;;;;;;;;;;;;5051829;28;19909;-78
2022/11/14 12:50:27;;;;;;;;;;;;;;;;;;5051616;28;19999;-79
2022/11/14 12:52:54;;;;;;;;;;;;;;;;;;5051914;28;19909;-78
2022/11/14 12:55:20;;;;;;;;;;;;;;;;;;5052612;28;19909;-78
2022/11/14 12:57:46;;;;;;;;;;;;;;;;;;5051562;28;20254;-77
2022/11/14 13:00:12;;;;;;;;;;;;;;;;;;5057230;28;19916;-79
2022/11/14 13:02:38;;;;;;;;;;;;;;;;;;5053581;28;19917;-79
2022/11/14 13:05:04;;;;;;;;;;;;;;;;;;5053594;28;19909;-78
2022/11/14 13:07:29;;;;;;;;;;;;;;;;;;5051353;28;19967;-78
2022/11/14 13:09:55;;;;;;;;;;;;;;;;;;5052784;28;19916;-79
2022/11/14 13:23:20;;;;;;;;;;;;;;;;;;5056407;28;19919;-78
2022/11/14 13:25:46;;;;;;;;;;;;;;;;;;5054726;28;19909;-78
2022/11/14 13:28:12;;;;;;;;;;;;;;;;;;5054515;28;19909;-77
2022/11/14 13:30:38;;;;;;;;;;;;;;;;;;5055872;28;19913;-77
2022/11/14 13:33:04;;;;;;;;;;;;;;;;;;5055990;28;19963;-77
2022/11/14 13:35:29;;;;;;;;;;;;;;;;;;5056025;28;19915;-75
2022/11/14 13:37:55;;;;;;;;;;;;;;;;;;5054703;28;19909;-77
2022/11/14 13:40:21;;;;;;;;;;;;;;;;;;5055899;28;19909;-77
2022/11/14 13:42:47;;;;;;;;;;;;;;;;;;5054480;28;19913;-77
2022/11/14 13:45:13;;;;;;;;;;;;;;;;;;5058556;28;19907;-76
2022/11/14 13:47:39;;;;;;;;;;;;;;;;;;5053902;28;20292;-77
2022/11/14 13:50:05;;;;;;;;;;;;;;;;;;5054898;28;19915;-77
2022/11/14 13:52:31;;;;;;;;;;;;;;;;;;5066679;28;19904;-77
2022/11/14 13:54:57;;;;;;;;;;;;;;;;;;5066275;28;19940;-77
2022/11/14 13:57:23;;;;;;;;;;;;;;;;;;5066639;28;20289;-77
2022/11/14 13:59:49;;;;;;;;;;;;;;;;;;5064559;28;19909;-77
2022/11/14 14:02:14;;;;;;;;;;;;;;;;;;5061905;28;19917;-76
2022/11/14 14:04:40;;;;;;;;;;;;;;;;;;5068947;28;19909;-77
2022/11/14 14:07:06;;;;;;;;;;;;;;;;;;5063548;28;20377;-78
2022/11/14 14:09:32;;;;;;;;;;;;;;;;;;5065482;28;19909;-79
2022/11/14 14:11:58;;;;;;;;;;;;;;;;;;5061695;28;19917;-78
2022/11/14 14:14:25;;;;;;;;;;;;;;;;;;5063693;28;19909;-78
2022/11/14 14:16:50;;;;;;;;;;;;;;;;;;5063827;28;19917;-78
2022/11/14 14:19:16;;;;;;;;;;;;;;;;;;5061990;28;19912;-79
2022/11/14 14:21:42;;;;;;;;;;;;;;;;;;5059794;28;19912;-79
2022/11/14 14:24:08;;;;;;;;;;;;;;;;;;5061280;28;19913;-78
2022/11/14 14:26:34;;;;;;;;;;;;;;;;;;5062822;28;19909;-79
2022/11/14 14:29:00;;;;;;;;;;;;;;;;;;5065216;28;19916;-78
2022/11/14 14:31:26;;;;;;;;;;;;;;;;;;5062577;28;19916;-78
2022/11/14 14:33:52;;;;;;;;;;;;;;;;;;5058521;28;19916;-79
2022/11/14 14:36:18;;;;;;;;;;;;;;;;;;5057414;28;19970;-79
2022/11/14 14:38:43;;;;;;;;;;;;;;;;;;5058256;28;19909;-78
2022/11/14 14:41:09;;;;;;;;;;;;;;;;;;5059046;28;19961;-78
2022/11/14 14:43:35;;;;;;;;;;;;;;;;;;5057704;28;19912;-78
2022/11/14 14:46:01;;;;;;;;;;;;;;;;;;5057805;28;19909;-79
2022/11/14 14:48:27;;;;;;;;;;;;;;;;;;5058085;28;19909;-77
2022/11/14 14:50:53;;;;;;;;;;;;;;;;;;5053970;28;20381;-78
2022/11/14 14:53:19;;;;;;;;;;;;;;;;;;5054032;28;19955;-78
2022/11/14 14:55:45;;;;;;;;;;;;;;;;;;5053946;28;20008;-78
2022/11/14 14:58:11;;;;;;;;;;;;;;;;;;5053983;28;19909;-78
2022/11/14 15:00:37;;;;;;;;;;;;;;;;;;5052764;28;20277;-77
2022/11/14 15:03:02;;;;;;;;;;;;;;;;;;5053774;28;19913;-77
2022/11/14 15:05:28;;;;;;;;;;;;;;;;;;5053634;28;20399;-77
2022/11/14 15:07:54;;;;;;;;;;;;;;;;;;5054426;28;20008;-77
2022/11/14 15:10:20;;;;;;;;;;;;;;;;;;5053398;28;19995;-78
2022/11/14 15:12:46;;;;;;;;;;;;;;;;;;5053341;28;19909;-77
2022/11/14 15:15:12;;;;;;;;;;;;;;;;;;5052212;28;19924;-77
2022/11/14 15:17:38;;;;;;;;;;;;;;;;;;5053283;28;19913;-77
2022/11/14 15:20:04;;;;;;;;;;;;;;;;;;5053047;28;20331;-77
2022/11/14 15:22:31;;;;;;;;;;;;;;;;;;5054281;28;19912;-79
2022/11/14 15:24:57;;;;;;;;;;;;;;;;;;5052330;28;19909;-77
2022/11/14 15:27:23;;;;;;;;;;;;;;;;;;5053609;28;19916;-77
2022/11/14 15:29:49;;;;;;;;;;;;;;;;;;5052699;28;19916;-77
2022/11/14 15:32:15;;;;;;;;;;;;;;;;;;5052873;28;19915;-77
2022/11/14 15:34:40;;;;;;;;;;;;;;;;;;5052053;28;19912;-77
2022/11/14 15:37:07;;;;;;;;;;;;;;;;;;5053501;28;20016;-77
2022/11/14 15:39:33;;;;;;;;;;;;;;;;;;5052633;28;19908;-76
2022/11/14 15:41:58;;;;;;;;;;;;;;;;;;5052333;28;20359;-77
2022/11/14 15:44:24;;;;;;;;;;;;;;;;;;5052292;28;20091;-79
2022/11/14 15:46:50;;;;;;;;;;;;;;;;;;5052642;28;20276;-77
2022/11/14 15:49:17;;;;;;;;;;;;;;;;;;5052280;28;19913;-77
2022/11/14 15:51:43;;;;;;;;;;;;;;;;;;5052491;28;19999;-77
2022/11/14 15:54:08;;;;;;;;;;;;;;;;;;5052221;28;19959;-77
2022/11/14 15:56:34;;;;;;;;;;;;;;;;;;5053165;28;20411;-77
2022/11/14 15:59:00;;;;;;;;;;;;;;;;;;5053446;28;19915;-77
2022/11/14 16:01:26;;;;;;;;;;;;;;;;;;5052138;28;19921;-77
2022/11/14 16:03:52;;;;;;;;;;;;;;;;;;5051792;28;19909;-77
2022/11/14 16:06:18;;;;;;;;;;;;;;;;;;5051847;28;19909;-77
2022/11/14 16:08:44;;;;;;;;;;;;;;;;;;5051620;28;20289;-77
2022/11/14 16:11:10;;;;;;;;;;;;;;;;;;5053179;28;20046;-77
2022/11/14 16:13:36;;;;;;;;;;;;;;;;;;5052941;28;19913;-77
2022/11/14 16:16:02;;;;;;;;;;;;;;;;;;5052970;28;20277;-77
2022/11/14 16:18:28;;;;;;;;;;;;;;;;;;5051497;28;19909;-78
2022/11/14 16:20:57;;;;;;;;;;;;;;;;;;5051780;28;20328;-76
2022/11/14 16:23:25;;;;;;;;;;;;;;;;;;5051163;28;20200;-76
2022/11/14 16:25:51;;;;;;;;;;;;;;;;;;5050912;28;19908;-76
2022/11/14 16:28:17;;;;;;;;;;;;;;;;;;5052785;28;19912;-77
2022/11/14 16:30:43;;;;;;;;;;;;;;;;;;5052872;28;20320;-77
2022/11/14 16:33:09;;;;;;;;;;;;;;;;;;5054809;28;19909;-76
2022/11/14 16:35:35;;;;;;;;;;;;;;;;;;5051388;28;20293;-77
2022/11/14 16:38:01;;;;;;;;;;;;;;;;;;5051315;28;19953;-77
2022/11/14 16:40:27;;;;;;;;;;;;;;;;;;5052732;28;20011;-77
2022/11/14 16:42:53;;;;;;;;;;;;;;;;;;5052648;28;19913;-76
2022/11/14 16:45:19;;;;;;;;;;;;;;;;;;5081607;22;19925;-78
2022/11/14 16:47:45;;;;;;;;;;;;;;;;;;5073036;28;19908;-78
2022/11/14 16:50:11;;;;;;;;;;;;;;;;;;5074277;28;19909;-77
2022/11/14 16:52:38;;;;;;;;;;;;;;;;;;5074080;28;19920;-80